ZSSSKSEE

Guest
Details From ZSSS - Hongqiao Intl
To KSEE - Gillespie Fld
Flight Number -
Tags Generated
Created
Modified
Stats Distance 5,738 nm / 10,627 km
Max Altitude 0 ft / 0 m
Waypoints 6
Social Downloads 0
Likes 0
Share VATSIM

Download

Looking for another format? Having issues loading an existing format? Contact us
Advertisement - Login to hide

Notes

Generated

Route

ZSSS PATLA KO48C ILSIC HURSI KSEE

ID Type Via Altitude Latitude Longitude Leg Dist Tot Dist Heading (true) Name
O ZSSS APT - 0 ft / 0 m 31.21325˚ 121.33544˚ - 0 nm - -
PATLA FIX - 0 ft / 0 m 36.27867˚ 128.02867˚ 451 nm 451 nm 46° / 50° -
KO48C FIX - 0 ft / 0 m 38.00000˚ -124.00000˚ 4823 nm 5275 nm 50° / 129° -
ILSIC FIX - 0 ft / 0 m 35.62972˚ -120.59514˚ 216 nm 5491 nm 130° / 132° -
HURSI FIX - 0 ft / 0 m 33.17044˚ -117.38812˚ 216 nm 5708 nm 132° / 134° -
O KSEE APT - 0 ft / 0 m 32.82738˚ -116.97624˚ 29 nm 5738 nm 135° / 135° -

Altitude Profile

Advertisement - Login to hide

Weather


0- 5 10 15 20 25 30 35+ Temperature / ° C

Clouds and Precipitation
Forecast for 2017-12-19 00:00 UTC. Updated an hour ago

Ground ~20,000 ft ~40,000 ft Winds

ZSSS

Details ICAO ZSSS (SHA)
Name HONGQIAO INTL
Region China
Timezone Asia/Shanghai (UTC+8.0)
Stats Elevation 10 ft / 3 m (AMSL)
Location 31.197875° 121.336319°
Runways 1
Magnetic Variation 5.918° W

METAR

ZSSS 182030Z 00000MPS CAVOK 01/M03 Q1033 NOSIG

Decode

TAF

Not found

Departure Runways

ID Width Length Bearing (true) Bearing (mag) Surface Threshold Offset Overrun Length
18 190 ft / 58 m 11,234 ft / 3,424 m 177.21° 183.13° Asphalt 657 ft / 200 m 520 ft / 159 m
36 190 ft / 58 m 11,234 ft / 3,424 m 357.21° 3.13° Asphalt 657 ft / 200 m 520 ft / 159 m

KSEE

Details ICAO KSEE (SEE)
Name Gillespie Field
Region United States
Timezone America/Los_Angeles (UTC-8.0)
Stats Elevation 388 ft / 118 m (AMSL)
Location 32.826113° -116.972351°
Runways 3
Magnetic Variation 11.495° E

METAR

KSEE 181947Z 00000KT 10SM SKC 21/M07 A3014

Decode

TAF

Not found

Destination Runways

ID Width Length Bearing (true) Bearing (mag) Surface Threshold Offset Overrun Length
09L 98 ft / 30 m 5,333 ft / 1,625 m 102.13° 90.63° Asphalt 0 ft / 0 m 299 ft / 91 m
09R 59 ft / 18 m 2,733 ft / 833 m 102.14° 90.64° Asphalt 0 ft / 0 m 230 ft / 70 m
17 98 ft / 30 m 4,157 ft / 1,267 m 179.62° 168.12° Asphalt 449 ft / 137 m 0 ft / 0 m
27L 59 ft / 18 m 2,733 ft / 833 m 282.14° 270.64° Asphalt 0 ft / 0 m 98 ft / 30 m
27R 98 ft / 30 m 5,333 ft / 1,625 m 282.14° 270.64° Asphalt 705 ft / 215 m 299 ft / 91 m
35 98 ft / 30 m 4,157 ft / 1,267 m 359.62° 348.12° Asphalt 686 ft / 209 m 0 ft / 0 m

Approach Navaids

Runway Type Ident Frequency Range Bearing (true) Bearing (mag) Slope Elevation
27R Localiser ISEE 110.50 MHz 18 nm / 33 km 282.13° 270.63° - 388 ft / 118 m (AMSL)